T44 EFTP-EFKU
Flight info
| Callsign | T44 |
|---|---|
| Flight time | 0h 47m |
| Altitude | 25000 |
| Route | ARBEV DCT NISPO |
| Aircraft | PC12/L-SDFGRWY/S |
Departure
| Time | 2026-04-25 21:30 |
|---|---|
| Airport | Tampere-Pirkkala Airport (EFTP) |
Arrival
| Time | 2026-04-25 22:17 |
|---|---|
| Airport | Kuopio Airport (EFKU) |
| Time | Latitude | Longitude | Altitude | Speed | Heading |
|---|---|---|---|---|---|
| 2026-04-25 21:01 | 61.40788 | 23.61592 | 373 ft | 0 kts | 306° |
| 2026-04-25 21:03 | 61.40787 | 23.61592 | 373 ft | 0 kts | 306° |
| 2026-04-25 21:04 | 61.40787 | 23.61593 | 373 ft | 0 kts | 306° |
| 2026-04-25 21:07 | 61.40787 | 23.61594 | 373 ft | 0 kts | 306° |
| 2026-04-25 21:10 | 61.40787 | 23.61595 | 373 ft | 0 kts | 306° |
| 2026-04-25 21:12 | 61.40786 | 23.61595 | 373 ft | 0 kts | 306° |
| 2026-04-25 21:13 | 61.40786 | 23.61596 | 373 ft | 0 kts | 306° |
| 2026-04-25 21:16 | 61.40786 | 23.61597 | 373 ft | 0 kts | 305° |
| 2026-04-25 21:19 | 61.40786 | 23.61598 | 373 ft | 0 kts | 305° |
| 2026-04-25 21:21 | 61.40785 | 23.61598 | 373 ft | 0 kts | 305° |
| 2026-04-25 21:22 | 61.40788 | 23.61565 | 372 ft | 9 kts | 263° |
| 2026-04-25 21:23 | 61.40718 | 23.61368 | 368 ft | 20 kts | 248° |
| 2026-04-25 21:23 | 61.40724 | 23.61018 | 372 ft | 18 kts | 275° |
| 2026-04-25 21:23 | 61.40703 | 23.60735 | 370 ft | 21 kts | 257° |
| 2026-04-25 21:23 | 61.40736 | 23.60441 | 372 ft | 20 kts | 304° |
| 2026-04-25 21:24 | 61.40833 | 23.60237 | 374 ft | 19 kts | 318° |
| 2026-04-25 21:24 | 61.40885 | 23.60109 | 381 ft | 15 kts | 309° |
| 2026-04-25 21:24 | 61.40934 | 23.59936 | 384 ft | 14 kts | 289° |
| 2026-04-25 21:24 | 61.40967 | 23.59726 | 386 ft | 16 kts | 281° |
| 2026-04-25 21:25 | 61.40973 | 23.59472 | 388 ft | 19 kts | 268° |
| 2026-04-25 21:25 | 61.41026 | 23.59251 | 390 ft | 10 kts | 333° |
| 2026-04-25 21:25 | 61.41081 | 23.59196 | 391 ft | 10 kts | 335° |
| 2026-04-25 21:25 | 61.41140 | 23.59236 | 391 ft | 9 kts | 69° |
| 2026-04-25 21:26 | 61.41146 | 23.59265 | 390 ft | 0 kts | 62° |
| 2026-04-25 21:26 | 61.41148 | 23.59271 | 390 ft | 0 kts | 63° |
| 2026-04-25 21:26 | 61.41148 | 23.59272 | 390 ft | 0 kts | 63° |
| 2026-04-25 21:27 | 61.41148 | 23.59273 | 390 ft | 0 kts | 62° |
| 2026-04-25 21:27 | 61.41149 | 23.59275 | 390 ft | 0 kts | 60° |
| 2026-04-25 21:28 | 61.41151 | 23.59282 | 383 ft | 0 kts | 59° |
| 2026-04-25 21:29 | 61.41210 | 23.59491 | 388 ft | 42 kts | 54° |
| 2026-04-25 21:29 | 61.41408 | 23.60385 | 391 ft | 91 kts | 66° |
| 2026-04-25 21:29 | 61.41682 | 23.61751 | 583 ft | 110 kts | 61° |
| 2026-04-25 21:29 | 61.41972 | 23.63355 | 907 ft | 127 kts | 64° |
| 2026-04-25 21:30 | 61.42328 | 23.65003 | 1521 ft | 121 kts | 48° |
| 2026-04-25 21:30 | 61.42744 | 23.66508 | 2133 ft | 120 kts | 49° |
| 2026-04-25 21:30 | 61.43163 | 23.68146 | 2602 ft | 136 kts | 52° |
| 2026-04-25 21:30 | 61.43452 | 23.69354 | 2916 ft | 144 kts | 54° |
| 2026-04-25 21:31 | 61.44059 | 23.71993 | 3523 ft | 156 kts | 54° |
| 2026-04-25 21:31 | 61.44586 | 23.73991 | 3982 ft | 161 kts | 54° |
| 2026-04-25 21:31 | 61.45089 | 23.76132 | 4446 ft | 167 kts | 56° |
| 2026-04-25 21:31 | 61.45614 | 23.78333 | 4897 ft | 172 kts | 55° |
| 2026-04-25 21:32 | 61.46153 | 23.80559 | 5443 ft | 170 kts | 55° |
| 2026-04-25 21:32 | 61.46700 | 23.82797 | 5902 ft | 175 kts | 56° |
| 2026-04-25 21:32 | 61.47257 | 23.85082 | 6381 ft | 177 kts | 56° |
| 2026-04-25 21:32 | 61.47817 | 23.87385 | 6843 ft | 179 kts | 56° |
| 2026-04-25 21:33 | 61.48385 | 23.89720 | 7306 ft | 181 kts | 56° |
| 2026-04-25 21:33 | 61.48958 | 23.92082 | 7767 ft | 183 kts | 56° |
| 2026-04-25 21:33 | 61.49537 | 23.94468 | 8224 ft | 185 kts | 56° |
| 2026-04-25 21:33 | 61.50122 | 23.96881 | 8682 ft | 187 kts | 56° |
| 2026-04-25 21:34 | 61.50714 | 23.99326 | 9136 ft | 189 kts | 56° |
| 2026-04-25 21:34 | 61.51313 | 24.01803 | 9577 ft | 192 kts | 57° |
| 2026-04-25 21:34 | 61.51919 | 24.04316 | 9979 ft | 195 kts | 57° |
| 2026-04-25 21:34 | 61.52535 | 24.06869 | 10378 ft | 198 kts | 57° |
| 2026-04-25 21:35 | 61.53149 | 24.09420 | 10778 ft | 200 kts | 58° |
| 2026-04-25 21:35 | 61.53779 | 24.12040 | 11188 ft | 202 kts | 58° |
| 2026-04-25 21:35 | 61.54417 | 24.14698 | 11605 ft | 205 kts | 58° |
| 2026-04-25 21:35 | 61.55060 | 24.17381 | 12011 ft | 208 kts | 59° |
| 2026-04-25 21:36 | 61.55714 | 24.20106 | 12403 ft | 210 kts | 58° |
| 2026-04-25 21:36 | 61.56375 | 24.22865 | 12793 ft | 213 kts | 59° |
| 2026-04-25 21:36 | 61.57046 | 24.25669 | 13153 ft | 217 kts | 60° |
| 2026-04-25 21:36 | 61.57871 | 24.28305 | 13489 ft | 216 kts | 44° |
| 2026-04-25 21:37 | 61.58943 | 24.30529 | 13839 ft | 217 kts | 41° |
| 2026-04-25 21:37 | 61.59651 | 24.32013 | 14086 ft | 218 kts | 42° |
| 2026-04-25 21:37 | 61.61070 | 24.35105 | 14556 ft | 221 kts | 40° |
| 2026-04-25 21:37 | 61.62303 | 24.37042 | 14882 ft | 223 kts | 27° |
| 2026-04-25 21:38 | 61.63784 | 24.38023 | 15081 ft | 227 kts | 5° |
| 2026-04-25 21:38 | 61.65338 | 24.38765 | 15292 ft | 231 kts | 19° |
| 2026-04-25 21:38 | 61.66826 | 24.39956 | 15717 ft | 227 kts | 20° |
| 2026-04-25 21:38 | 61.68278 | 24.41201 | 16115 ft | 225 kts | 31° |
| 2026-04-25 21:39 | 61.69366 | 24.43543 | 16494 ft | 225 kts | 51° |
| 2026-04-25 21:39 | 61.70342 | 24.46114 | 16899 ft | 225 kts | 50° |
| 2026-04-25 21:39 | 61.71350 | 24.48647 | 17304 ft | 226 kts | 50° |
| 2026-04-25 21:39 | 61.72373 | 24.51167 | 17714 ft | 226 kts | 50° |
| 2026-04-25 21:40 | 61.73392 | 24.53698 | 18071 ft | 227 kts | 51° |
| 2026-04-25 21:40 | 61.74412 | 24.56245 | 18421 ft | 228 kts | 51° |
| 2026-04-25 21:40 | 61.75436 | 24.58805 | 18776 ft | 228 kts | 50° |
| 2026-04-25 21:40 | 61.76464 | 24.61374 | 19129 ft | 229 kts | 50° |
| 2026-04-25 21:41 | 61.77496 | 24.63955 | 19481 ft | 230 kts | 50° |
| 2026-04-25 21:41 | 61.78531 | 24.66547 | 19838 ft | 232 kts | 50° |
| 2026-04-25 21:41 | 61.79572 | 24.69157 | 20199 ft | 233 kts | 50° |
| 2026-04-25 21:41 | 61.80618 | 24.71783 | 20557 ft | 234 kts | 50° |
| 2026-04-25 21:42 | 61.81669 | 24.74417 | 20919 ft | 235 kts | 50° |
| 2026-04-25 21:42 | 61.82725 | 24.77071 | 21279 ft | 236 kts | 51° |
| 2026-04-25 21:42 | 61.83785 | 24.79743 | 21649 ft | 238 kts | 51° |
| 2026-04-25 21:42 | 61.84852 | 24.82434 | 22022 ft | 239 kts | 51° |
| 2026-04-25 21:43 | 61.85910 | 24.85108 | 22371 ft | 241 kts | 51° |
| 2026-04-25 21:43 | 61.87002 | 24.87868 | 22748 ft | 242 kts | 51° |
| 2026-04-25 21:43 | 61.88072 | 24.90578 | 23106 ft | 243 kts | 51° |
| 2026-04-25 21:43 | 61.89161 | 24.93339 | 23407 ft | 244 kts | 51° |
| 2026-04-25 21:44 | 61.90255 | 24.96116 | 23706 ft | 246 kts | 51° |
| 2026-04-25 21:44 | 61.91353 | 24.98905 | 24006 ft | 247 kts | 51° |
| 2026-04-25 21:44 | 61.93568 | 25.04541 | 24516 ft | 254 kts | 51° |
| 2026-04-25 21:45 | 61.94723 | 25.07490 | 24535 ft | 266 kts | 51° |
| 2026-04-25 21:45 | 61.95515 | 25.09514 | 24538 ft | 272 kts | 51° |
| 2026-04-25 21:45 | 61.97155 | 25.13706 | 24537 ft | 278 kts | 51° |
| 2026-04-25 21:45 | 61.98395 | 25.16878 | 24539 ft | 280 kts | 51° |
| 2026-04-25 21:46 | 61.99634 | 25.20056 | 24541 ft | 277 kts | 51° |
| 2026-04-25 21:46 | 62.00854 | 25.23189 | 24536 ft | 273 kts | 51° |
| 2026-04-25 21:46 | 62.02060 | 25.26289 | 24534 ft | 271 kts | 51° |
| 2026-04-25 21:46 | 62.03257 | 25.29369 | 24537 ft | 269 kts | 51° |
| 2026-04-25 21:47 | 62.04450 | 25.32444 | 24535 ft | 269 kts | 51° |
| 2026-04-25 21:47 | 62.05638 | 25.35510 | 24536 ft | 269 kts | 51° |
| 2026-04-25 21:47 | 62.06836 | 25.38608 | 24535 ft | 273 kts | 52° |
| 2026-04-25 21:47 | 62.08052 | 25.41757 | 24534 ft | 276 kts | 51° |
| 2026-04-25 21:48 | 62.09276 | 25.44930 | 24537 ft | 278 kts | 51° |
| 2026-04-25 21:48 | 62.10495 | 25.48146 | 24535 ft | 279 kts | 54° |
| 2026-04-25 21:48 | 62.11576 | 25.51591 | 24535 ft | 280 kts | 59° |
| 2026-04-25 21:48 | 62.12608 | 25.55135 | 24533 ft | 281 kts | 59° |
| 2026-04-25 21:49 | 62.13672 | 25.58582 | 24533 ft | 282 kts | 57° |
| 2026-04-25 21:49 | 62.14773 | 25.62026 | 24579 ft | 281 kts | 57° |
| 2026-04-25 21:49 | 62.15883 | 25.65549 | 24459 ft | 286 kts | 58° |
| 2026-04-25 21:49 | 62.16985 | 25.69093 | 24465 ft | 286 kts | 58° |
| 2026-04-25 21:50 | 62.18087 | 25.72636 | 24462 ft | 286 kts | 58° |
| 2026-04-25 21:50 | 62.19192 | 25.76177 | 24402 ft | 288 kts | 58° |
| 2026-04-25 21:50 | 62.20330 | 25.79838 | 23969 ft | 302 kts | 58° |
| 2026-04-25 21:50 | 62.21110 | 25.82348 | 23697 ft | 308 kts | 58° |
| 2026-04-25 21:51 | 62.22689 | 25.87433 | 23105 ft | 301 kts | 59° |
| 2026-04-25 21:51 | 62.23823 | 25.91090 | 22591 ft | 289 kts | 59° |
| 2026-04-25 21:51 | 62.24915 | 25.94619 | 22045 ft | 279 kts | 59° |
| 2026-04-25 21:51 | 62.25972 | 25.98044 | 21537 ft | 272 kts | 58° |
| 2026-04-25 21:52 | 62.27003 | 26.01395 | 21034 ft | 266 kts | 58° |
| 2026-04-25 21:52 | 62.28010 | 26.04672 | 20544 ft | 261 kts | 58° |
| 2026-04-25 21:52 | 62.29005 | 26.07908 | 20057 ft | 257 kts | 58° |
| 2026-04-25 21:52 | 62.29981 | 26.11086 | 19582 ft | 253 kts | 58° |
| 2026-04-25 21:53 | 62.30943 | 26.14227 | 19114 ft | 250 kts | 58° |
| 2026-04-25 21:53 | 62.31892 | 26.17327 | 18655 ft | 246 kts | 58° |
| 2026-04-25 21:53 | 62.32829 | 26.20390 | 18202 ft | 244 kts | 58° |
| 2026-04-25 21:53 | 62.33753 | 26.23418 | 17748 ft | 241 kts | 58° |
| 2026-04-25 21:54 | 62.34656 | 26.26381 | 17239 ft | 239 kts | 58° |
| 2026-04-25 21:54 | 62.35563 | 26.29356 | 16729 ft | 237 kts | 58° |
| 2026-04-25 21:54 | 62.36461 | 26.32312 | 16234 ft | 235 kts | 57° |
| 2026-04-25 21:54 | 62.37350 | 26.35240 | 15738 ft | 233 kts | 57° |
| 2026-04-25 21:55 | 62.38233 | 26.38151 | 15261 ft | 231 kts | 57° |
| 2026-04-25 21:55 | 62.39107 | 26.41038 | 14785 ft | 229 kts | 57° |
| 2026-04-25 21:55 | 62.39974 | 26.43901 | 14315 ft | 227 kts | 57° |
| 2026-04-25 21:55 | 62.40833 | 26.46744 | 13859 ft | 225 kts | 57° |
| 2026-04-25 21:56 | 62.41684 | 26.49564 | 13408 ft | 224 kts | 57° |
| 2026-04-25 21:56 | 62.42244 | 26.51421 | 13085 ft | 222 kts | 57° |
| 2026-04-25 21:56 | 62.43363 | 26.55137 | 12409 ft | 219 kts | 56° |
| 2026-04-25 21:56 | 62.44186 | 26.57874 | 11920 ft | 215 kts | 56° |
| 2026-04-25 21:57 | 62.44992 | 26.60559 | 11421 ft | 211 kts | 55° |
| 2026-04-25 21:57 | 62.45784 | 26.63200 | 10891 ft | 208 kts | 54° |
| 2026-04-25 21:57 | 62.46561 | 26.65794 | 10374 ft | 204 kts | 55° |
| 2026-04-25 21:57 | 62.47320 | 26.68329 | 9856 ft | 198 kts | 54° |
| 2026-04-25 21:58 | 62.48056 | 26.70796 | 9392 ft | 192 kts | 54° |
| 2026-04-25 21:58 | 62.48771 | 26.73189 | 8891 ft | 187 kts | 54° |
| 2026-04-25 21:58 | 62.49469 | 26.75528 | 8390 ft | 183 kts | 54° |
| 2026-04-25 21:58 | 62.50151 | 26.77817 | 7900 ft | 179 kts | 54° |
| 2026-04-25 21:59 | 62.50819 | 26.80063 | 7415 ft | 176 kts | 54° |
| 2026-04-25 21:59 | 62.51473 | 26.82260 | 6944 ft | 172 kts | 53° |
| 2026-04-25 21:59 | 62.52111 | 26.84410 | 6520 ft | 166 kts | 53° |
| 2026-04-25 22:00 | 62.53349 | 26.88561 | 6502 ft | 166 kts | 53° |
| 2026-04-25 22:00 | 62.53977 | 26.90676 | 6511 ft | 168 kts | 53° |
| 2026-04-25 22:00 | 62.54610 | 26.92814 | 6510 ft | 170 kts | 53° |
| 2026-04-25 22:00 | 62.55251 | 26.94983 | 6496 ft | 172 kts | 53° |
| 2026-04-25 22:01 | 62.55900 | 26.97180 | 6501 ft | 174 kts | 53° |
| 2026-04-25 22:01 | 62.56553 | 26.99393 | 6511 ft | 175 kts | 53° |
| 2026-04-25 22:01 | 62.57209 | 27.01629 | 6501 ft | 176 kts | 54° |
| 2026-04-25 22:01 | 62.57645 | 27.03110 | 6503 ft | 177 kts | 53° |
| 2026-04-25 22:02 | 62.58530 | 27.06097 | 6508 ft | 178 kts | 54° |
| 2026-04-25 22:02 | 62.59199 | 27.08352 | 6505 ft | 178 kts | 53° |
| 2026-04-25 22:02 | 62.59869 | 27.10603 | 6501 ft | 178 kts | 54° |
| 2026-04-25 22:02 | 62.60540 | 27.12856 | 6500 ft | 178 kts | 54° |
| 2026-04-25 22:03 | 62.61215 | 27.15114 | 6498 ft | 178 kts | 54° |
| 2026-04-25 22:03 | 62.61891 | 27.17374 | 6500 ft | 178 kts | 54° |
| 2026-04-25 22:03 | 62.62594 | 27.19727 | 6291 ft | 187 kts | 54° |
| 2026-04-25 22:03 | 62.63309 | 27.22118 | 6040 ft | 195 kts | 54° |
| 2026-04-25 22:04 | 62.64055 | 27.24611 | 5776 ft | 199 kts | 54° |
| 2026-04-25 22:04 | 62.64813 | 27.27145 | 5499 ft | 201 kts | 54° |
| 2026-04-25 22:04 | 62.65577 | 27.29706 | 5227 ft | 202 kts | 54° |
| 2026-04-25 22:04 | 62.66348 | 27.32279 | 4959 ft | 203 kts | 54° |
| 2026-04-25 22:05 | 62.67124 | 27.34855 | 4695 ft | 204 kts | 54° |
| 2026-04-25 22:05 | 62.67904 | 27.37439 | 4430 ft | 204 kts | 54° |
| 2026-04-25 22:05 | 62.68682 | 27.40030 | 4169 ft | 204 kts | 54° |
| 2026-04-25 22:05 | 62.69457 | 27.42622 | 3891 ft | 204 kts | 54° |
| 2026-04-25 22:06 | 62.70229 | 27.45207 | 3623 ft | 203 kts | 54° |
| 2026-04-25 22:06 | 62.71002 | 27.47786 | 3357 ft | 203 kts | 54° |
| 2026-04-25 22:06 | 62.71769 | 27.50363 | 3089 ft | 202 kts | 54° |
| 2026-04-25 22:06 | 62.72535 | 27.52940 | 2824 ft | 202 kts | 54° |
| 2026-04-25 22:07 | 62.73297 | 27.55509 | 2561 ft | 201 kts | 54° |
| 2026-04-25 22:07 | 62.73799 | 27.57203 | 2381 ft | 200 kts | 54° |
| 2026-04-25 22:07 | 62.74798 | 27.60585 | 2194 ft | 192 kts | 54° |
| 2026-04-25 22:07 | 62.75504 | 27.62997 | 2200 ft | 185 kts | 54° |
| 2026-04-25 22:08 | 62.76188 | 27.65342 | 2190 ft | 181 kts | 54° |
| 2026-04-25 22:08 | 62.76856 | 27.67630 | 2185 ft | 176 kts | 54° |
| 2026-04-25 22:08 | 62.77510 | 27.69866 | 2187 ft | 173 kts | 54° |
| 2026-04-25 22:08 | 62.78153 | 27.72067 | 2229 ft | 169 kts | 54° |
| 2026-04-25 22:09 | 62.78768 | 27.74193 | 2358 ft | 162 kts | 54° |
| 2026-04-25 22:09 | 62.79163 | 27.75561 | 2451 ft | 159 kts | 54° |
| 2026-04-25 22:09 | 62.79742 | 27.77578 | 2575 ft | 155 kts | 54° |
| 2026-04-25 22:09 | 62.80311 | 27.79550 | 2685 ft | 153 kts | 54° |
| 2026-04-25 22:10 | 62.80876 | 27.81487 | 2680 ft | 141 kts | 54° |
| 2026-04-25 22:10 | 62.81576 | 27.83891 | 2694 ft | 150 kts | 54° |
| 2026-04-25 22:10 | 62.82178 | 27.85912 | 2694 ft | 166 kts | 54° |
| 2026-04-25 22:10 | 62.82617 | 27.87380 | 2698 ft | 175 kts | 54° |
| 2026-04-25 22:11 | 62.83294 | 27.89633 | 2689 ft | 183 kts | 54° |
| 2026-04-25 22:11 | 62.84000 | 27.91994 | 2686 ft | 188 kts | 54° |
| 2026-04-25 22:11 | 62.84729 | 27.94270 | 2711 ft | 183 kts | 39° |
| 2026-04-25 22:11 | 62.85887 | 27.93528 | 2293 ft | 208 kts | 327° |
| 2026-04-25 22:12 | 62.87059 | 27.91804 | 2280 ft | 187 kts | 337° |
| 2026-04-25 22:12 | 62.88064 | 27.90623 | 2259 ft | 150 kts | 342° |
| 2026-04-25 22:12 | 62.88860 | 27.89811 | 2262 ft | 95 kts | 347° |
| 2026-04-25 22:12 | 62.89229 | 27.89431 | 2210 ft | 83 kts | 349° |
| 2026-04-25 22:13 | 62.89922 | 27.88770 | 2080 ft | 82 kts | 348° |
| 2026-04-25 22:13 | 62.90450 | 27.88257 | 2025 ft | 84 kts | 349° |
| 2026-04-25 22:13 | 62.90984 | 27.87735 | 2059 ft | 82 kts | 348° |
| 2026-04-25 22:13 | 62.91506 | 27.87239 | 2094 ft | 83 kts | 350° |
| 2026-04-25 22:14 | 62.92056 | 27.86794 | 2073 ft | 85 kts | 351° |
| 2026-04-25 22:14 | 62.92622 | 27.86234 | 2035 ft | 90 kts | 348° |
| 2026-04-25 22:14 | 62.93217 | 27.85787 | 1949 ft | 91 kts | 356° |
| 2026-04-25 22:14 | 62.93834 | 27.85564 | 1912 ft | 94 kts | 357° |
| 2026-04-25 22:15 | 62.94447 | 27.85164 | 1753 ft | 85 kts | 349° |
| 2026-04-25 22:15 | 62.94999 | 27.84693 | 1570 ft | 85 kts | 348° |
| 2026-04-25 22:15 | 62.95602 | 27.84243 | 1368 ft | 99 kts | 346° |
| 2026-04-25 22:16 | 62.96933 | 27.83183 | 985 ft | 97 kts | 344° |
| 2026-04-25 22:16 | 62.97569 | 27.82659 | 810 ft | 100 kts | 341° |
| 2026-04-25 22:16 | 62.98212 | 27.82090 | 696 ft | 98 kts | 339° |
| 2026-04-25 22:16 | 62.98842 | 27.81516 | 538 ft | 98 kts | 339° |
| 2026-04-25 22:17 | 62.99471 | 27.80924 | 386 ft | 95 kts | 340° |
| 2026-04-25 22:17 | 63.00022 | 27.80417 | 318 ft | 73 kts | 341° |
| 2026-04-25 22:17 | 63.00399 | 27.80069 | 306 ft | 43 kts | 337° |
| 2026-04-25 22:17 | 63.00665 | 27.79820 | 315 ft | 38 kts | 338° |
| 2026-04-25 22:18 | 63.00686 | 27.79596 | 317 ft | 16 kts | 248° |
| 2026-04-25 22:18 | 63.00671 | 27.79367 | 318 ft | 17 kts | 275° |
| 2026-04-25 22:18 | 63.00560 | 27.79198 | 316 ft | 23 kts | 208° |
| 2026-04-25 22:18 | 63.00415 | 27.79094 | 316 ft | 21 kts | 167° |
| 2026-04-25 22:19 | 63.00389 | 27.79035 | 316 ft | 0 kts | 253° |